createdAt,value
2019-03-29T00:01:06.729Z,69.20
2019-03-29T00:03:36.369Z,69.10
2019-03-29T00:06:05.967Z,69.10
2019-03-29T00:08:36.098Z,69.30
2019-03-29T00:11:06.144Z,69.40
2019-03-29T00:13:35.804Z,69.40
2019-03-29T00:16:05.410Z,69.60
2019-03-29T00:18:35.948Z,69.60
2019-03-29T00:21:05.724Z,69.70
2019-03-29T00:23:35.410Z,69.70
2019-03-29T00:26:05.124Z,70.00
2019-03-29T00:28:34.734Z,70.20
2019-03-29T00:31:04.450Z,70.20
2019-03-29T00:33:34.074Z,70.40
2019-03-29T00:36:03.692Z,70.70
2019-03-29T00:38:33.310Z,71.20
2019-03-29T00:41:02.933Z,71.10
2019-03-29T00:43:32.572Z,71.40
2019-03-29T00:46:02.167Z,71.50
2019-03-29T00:48:31.813Z,71.40
2019-03-29T00:51:01.416Z,71.30
2019-03-29T00:53:31.050Z,71.40
2019-03-29T00:56:00.666Z,71.60
2019-03-29T00:58:30.278Z,71.60
2019-03-29T01:01:00.048Z,72.30
2019-03-29T01:03:29.869Z,72.50
2019-03-29T01:05:59.453Z,72.70
2019-03-29T01:08:29.065Z,72.80
2019-03-29T01:10:58.614Z,73.00
2019-03-29T01:13:28.256Z,73.50
2019-03-29T01:15:57.838Z,73.90
2019-03-29T01:18:27.453Z,74.10
2019-03-29T01:20:57.043Z,74.60
2019-03-29T01:23:26.638Z,74.90
2019-03-29T01:25:56.224Z,75.70
2019-03-29T01:28:25.760Z,76.00
2019-03-29T01:30:55.364Z,75.80
2019-03-29T01:33:25.049Z,75.70
2019-03-29T01:35:54.937Z,75.70
2019-03-29T01:38:24.701Z,75.90
2019-03-29T01:40:54.277Z,75.90
2019-03-29T01:43:23.839Z,76.50
2019-03-29T01:45:53.424Z,76.40
2019-03-29T01:48:23.161Z,76.30
2019-03-29T01:50:52.935Z,76.70
2019-03-29T01:53:22.551Z,76.50
2019-03-29T01:55:52.155Z,76.70
2019-03-29T01:58:21.749Z,77.30
2019-03-29T02:00:51.406Z,78.60
2019-03-29T02:03:20.919Z,77.90
2019-03-29T02:05:50.509Z,77.80
2019-03-29T02:08:20.132Z,78.60
2019-03-29T02:10:52.379Z,78.40
2019-03-29T02:13:22.000Z,78.30
2019-03-29T02:15:51.592Z,78.60
2019-03-29T02:18:21.208Z,79.00
2019-03-29T02:20:50.942Z,79.00
2019-03-29T02:23:20.550Z,78.80
2019-03-29T02:25:50.184Z,79.40
2019-03-29T02:28:19.834Z,79.50
2019-03-29T02:30:49.437Z,79.80
2019-03-29T02:33:20.476Z,80.30
2019-03-29T02:35:50.360Z,81.00
2019-03-29T02:38:19.988Z,81.90
2019-03-29T02:40:50.887Z,80.90
2019-03-29T02:43:20.934Z,82.10
2019-03-29T02:45:50.514Z,82.70
2019-03-29T02:48:20.150Z,83.10
2019-03-29T02:50:49.753Z,83.40
2019-03-29T02:53:19.447Z,83.70
2019-03-29T02:55:49.045Z,83.80
2019-03-29T02:58:18.706Z,83.70
2019-03-29T03:00:48.463Z,83.90
2019-03-29T03:03:18.145Z,83.50
2019-03-29T03:05:47.811Z,84.10
2019-03-29T03:08:17.422Z,83.70
2019-03-29T03:10:47.065Z,83.80
2019-03-29T03:13:16.664Z,83.70
2019-03-29T03:15:46.314Z,83.60
2019-03-29T03:18:15.959Z,83.20
2019-03-29T03:20:45.544Z,83.40
2019-03-29T03:23:15.174Z,84.00
2019-03-29T03:25:44.705Z,84.00
2019-03-29T03:28:14.371Z,84.20
2019-03-29T03:30:44.043Z,84.00
2019-03-29T03:33:13.886Z,83.90
2019-03-29T03:35:43.581Z,84.10
2019-03-29T03:38:13.209Z,84.60
2019-03-29T03:40:42.899Z,84.90
2019-03-29T03:43:12.558Z,85.00
2019-03-29T03:45:42.152Z,85.70
2019-03-29T03:48:11.796Z,85.90
2019-03-29T03:50:43.426Z,86.40
2019-03-29T03:53:13.133Z,86.10
2019-03-29T03:55:43.352Z,86.10
2019-03-29T03:58:13.409Z,86.10
2019-03-29T04:00:55.778Z,86.10
2019-03-29T04:03:26.000Z,86.10
2019-03-29T04:05:56.016Z,86.20
2019-03-29T04:08:26.031Z,86.20
2019-03-29T04:10:55.662Z,85.90
2019-03-29T04:13:25.344Z,87.00
2019-03-29T04:15:54.934Z,86.80
2019-03-29T04:18:24.585Z,87.50
2019-03-29T04:20:54.190Z,88.20
2019-03-29T04:23:23.860Z,87.50
2019-03-29T04:25:53.557Z,87.70
2019-03-29T04:28:23.254Z,88.10
2019-03-29T04:30:52.863Z,88.40
2019-03-29T04:33:22.570Z,88.10
2019-03-29T04:35:52.162Z,88.10
2019-03-29T04:38:21.802Z,87.80
2019-03-29T04:40:51.380Z,87.50
2019-03-29T04:43:21.053Z,87.50
2019-03-29T04:45:50.680Z,87.90
2019-03-29T04:48:20.325Z,88.20
2019-03-29T04:50:49.994Z,88.60
2019-03-29T04:53:19.739Z,88.30
2019-03-29T04:55:49.436Z,88.20
2019-03-29T04:58:19.182Z,87.60
2019-03-29T05:00:48.801Z,88.60
2019-03-29T05:03:18.429Z,89.20
2019-03-29T05:05:48.051Z,89.20
2019-03-29T05:08:17.707Z,89.70
2019-03-29T05:10:47.322Z,89.40
2019-03-29T05:13:17.048Z,90.00
2019-03-29T05:15:46.634Z,90.00
2019-03-29T05:18:16.329Z,89.80
2019-03-29T05:20:45.980Z,90.00
2019-03-29T05:23:15.627Z,90.30
2019-03-29T05:25:45.273Z,90.50
2019-03-29T05:28:14.910Z,90.40
2019-03-29T05:30:44.524Z,90.90
2019-03-29T05:33:14.171Z,91.10
2019-03-29T05:35:43.764Z,91.10
2019-03-29T05:38:13.409Z,91.60
2019-03-29T05:40:43.028Z,91.60
2019-03-29T05:43:12.674Z,91.70
2019-03-29T05:45:42.288Z,92.20
2019-03-29T05:48:11.938Z,92.00
2019-03-29T05:50:41.561Z,92.50
2019-03-29T05:53:11.318Z,93.10
2019-03-29T05:55:40.922Z,93.40
2019-03-29T05:58:11.074Z,93.80
2019-03-29T06:00:40.686Z,94.20
2019-03-29T06:03:10.485Z,94.30
2019-03-29T06:05:40.139Z,94.50
2019-03-29T06:08:09.815Z,94.60
2019-03-29T06:10:48.793Z,95.20
2019-03-29T06:13:10.802Z,95.20
2019-03-29T06:15:40.420Z,95.30
2019-03-29T06:18:10.068Z,95.30
2019-03-29T06:20:39.669Z,96.10
2019-03-29T06:23:09.247Z,96.70
2019-03-29T06:25:38.873Z,98.00
2019-03-29T06:28:08.531Z,98.50
2019-03-29T06:30:38.104Z,98.70
2019-03-29T06:33:07.745Z,98.50
2019-03-29T06:35:40.585Z,99.90
2019-03-29T06:38:11.165Z,99.90
2019-03-29T06:40:40.804Z,99.90
2019-03-29T06:43:10.497Z,99.90
2019-03-29T06:45:47.831Z,99.90
2019-03-29T06:48:11.501Z,99.90
2019-03-29T06:50:41.189Z,99.90
2019-03-29T06:53:10.872Z,99.90
2019-03-29T06:55:40.547Z,99.90
2019-03-29T06:58:10.095Z,99.90
2019-03-29T07:00:39.746Z,99.90
2019-03-29T07:03:09.358Z,99.90
2019-03-29T07:05:38.929Z,99.90
2019-03-29T07:08:08.485Z,99.90
2019-03-29T07:10:38.195Z,99.90
2019-03-29T07:13:07.883Z,99.90
2019-03-29T07:15:37.535Z,99.90
2019-03-29T07:18:07.129Z,99.90
2019-03-29T07:20:36.795Z,99.90
2019-03-29T07:23:06.423Z,99.90
2019-03-29T07:25:36.048Z,99.90
2019-03-29T07:28:05.655Z,99.90
2019-03-29T07:30:35.254Z,99.90
2019-03-29T07:33:04.918Z,99.90
2019-03-29T07:35:34.510Z,99.90
2019-03-29T07:38:04.163Z,99.90
2019-03-29T07:40:33.768Z,99.90
2019-03-29T07:43:03.377Z,99.90
2019-03-29T07:45:33.036Z,99.90
2019-03-29T07:48:02.626Z,99.90
2019-03-29T07:50:32.282Z,99.90
2019-03-29T07:53:01.807Z,99.90
2019-03-29T07:55:31.451Z,99.90
2019-03-29T07:58:01.006Z,99.90
2019-03-29T08:00:30.672Z,99.90
2019-03-29T08:03:00.325Z,99.90
2019-03-29T08:05:29.986Z,99.90
2019-03-29T08:08:00.056Z,99.90
2019-03-29T08:10:31.441Z,99.90
2019-03-29T08:13:01.255Z,99.90
2019-03-29T08:15:30.908Z,99.90
2019-03-29T08:18:01.682Z,99.90
2019-03-29T08:20:43.499Z,99.90
2019-03-29T08:23:03.025Z,99.90
2019-03-29T08:25:32.668Z,99.90
2019-03-29T08:28:02.332Z,99.90
2019-03-29T08:30:31.957Z,99.90
2019-03-29T08:33:01.597Z,99.90
2019-03-29T08:35:31.208Z,99.90
2019-03-29T08:38:00.886Z,99.90
2019-03-29T08:40:30.510Z,99.90
2019-03-29T08:43:00.172Z,99.90
2019-03-29T08:45:29.786Z,99.90
2019-03-29T08:47:59.417Z,99.90
2019-03-29T08:50:29.036Z,99.90
2019-03-29T08:52:58.697Z,99.90
2019-03-29T08:55:28.353Z,99.90
2019-03-29T08:57:57.971Z,99.90
2019-03-29T09:00:31.649Z,99.90
2019-03-29T09:03:01.426Z,99.90
2019-03-29T09:05:31.187Z,99.90
2019-03-29T09:08:01.009Z,99.90
2019-03-29T09:10:31.735Z,99.90
2019-03-29T09:13:04.178Z,99.90
2019-03-29T09:15:32.727Z,99.90
2019-03-29T09:18:02.331Z,99.90
2019-03-29T09:20:34.537Z,99.90
2019-03-29T09:23:03.319Z,99.90
2019-03-29T09:25:32.971Z,99.90
2019-03-29T09:28:02.553Z,99.90
2019-03-29T09:30:32.207Z,99.90
2019-03-29T09:33:01.823Z,99.90
2019-03-29T09:35:31.449Z,99.90
2019-03-29T09:38:01.097Z,99.90
2019-03-29T09:40:30.722Z,99.90
2019-03-29T09:43:08.406Z,99.90
2019-03-29T09:45:31.678Z,99.90
2019-03-29T09:48:01.319Z,99.40
2019-03-29T09:50:31.027Z,98.90
2019-03-29T09:53:01.477Z,98.30
2019-03-29T09:55:31.340Z,98.20
2019-03-29T09:58:01.144Z,97.80
2019-03-29T10:00:30.756Z,97.40
2019-03-29T10:03:00.401Z,96.80
2019-03-29T10:05:31.441Z,96.60
2019-03-29T10:08:01.531Z,96.00
2019-03-29T10:10:34.340Z,96.10
2019-03-29T10:13:02.569Z,94.80
2019-03-29T10:15:32.085Z,94.40
2019-03-29T10:18:01.711Z,93.90
2019-03-29T10:20:31.330Z,94.50
2019-03-29T10:23:00.948Z,93.80
2019-03-29T10:25:30.580Z,93.20
2019-03-29T10:28:00.189Z,92.50
2019-03-29T10:30:41.227Z,92.10
2019-03-29T10:33:10.957Z,92.00
2019-03-29T10:35:51.749Z,91.30
2019-03-29T10:38:12.023Z,91.30
2019-03-29T10:40:41.667Z,90.60
2019-03-29T10:43:11.431Z,90.80
2019-03-29T10:45:40.997Z,90.40
2019-03-29T10:48:10.622Z,89.20
2019-03-29T10:50:40.241Z,87.80
2019-03-29T10:53:09.840Z,87.30
2019-03-29T10:55:39.469Z,87.30
2019-03-29T10:58:09.788Z,87.20
2019-03-29T11:00:40.700Z,86.60
2019-03-29T11:03:10.426Z,85.80
2019-03-29T11:05:40.020Z,84.60
2019-03-29T11:08:11.553Z,83.00
2019-03-29T11:10:41.250Z,82.20
2019-03-29T11:13:13.978Z,81.20
2019-03-29T11:15:42.287Z,80.80
2019-03-29T11:18:11.912Z,81.40
2019-03-29T11:20:41.533Z,81.00
2019-03-29T11:23:11.180Z,81.00
2019-03-29T11:25:40.778Z,80.10
2019-03-29T11:28:10.236Z,79.70
2019-03-29T11:30:42.666Z,78.90
2019-03-29T11:33:11.206Z,77.60
2019-03-29T11:35:40.885Z,77.30
2019-03-29T11:38:10.550Z,75.80
2019-03-29T11:40:40.163Z,76.50
2019-03-29T11:43:09.811Z,74.50
2019-03-29T11:45:39.427Z,73.00
2019-03-29T11:48:09.725Z,73.20
2019-03-29T11:50:39.422Z,72.00
2019-03-29T11:53:09.119Z,72.00
2019-03-29T11:55:38.783Z,71.70
2019-03-29T11:58:08.427Z,71.10
2019-03-29T12:00:38.908Z,70.20
2019-03-29T12:03:09.349Z,70.20
2019-03-29T12:05:39.352Z,69.70
2019-03-29T12:08:09.062Z,69.00
2019-03-29T12:10:38.660Z,68.70
2019-03-29T12:13:10.057Z,68.40
2019-03-29T12:15:39.945Z,68.80
2019-03-29T12:18:09.665Z,68.30
2019-03-29T12:20:39.358Z,67.10
2019-03-29T12:23:09.019Z,66.60
2019-03-29T12:25:38.676Z,66.60
2019-03-29T12:28:08.376Z,67.00
2019-03-29T12:30:38.828Z,66.70
2019-03-29T12:33:08.440Z,67.60
2019-03-29T12:35:38.105Z,67.00
2019-03-29T12:38:07.769Z,66.80
2019-03-29T12:40:37.442Z,66.70
2019-03-29T12:43:07.122Z,65.10
2019-03-29T12:45:37.362Z,65.00
2019-03-29T12:48:06.977Z,65.10
2019-03-29T12:50:36.590Z,65.70
2019-03-29T12:53:06.211Z,65.60
2019-03-29T12:55:35.853Z,65.00
2019-03-29T12:58:05.498Z,65.00
2019-03-29T13:00:35.244Z,64.30
2019-03-29T13:03:04.960Z,63.30
2019-03-29T13:05:34.615Z,63.60
2019-03-29T13:08:04.257Z,62.50
2019-03-29T13:10:33.894Z,62.30
2019-03-29T13:13:03.482Z,62.40
2019-03-29T13:15:33.323Z,61.50
2019-03-29T13:18:02.956Z,60.10
2019-03-29T13:20:32.587Z,59.60
2019-03-29T13:23:02.247Z,60.60
2019-03-29T13:25:31.949Z,60.30
2019-03-29T13:28:01.592Z,60.70
2019-03-29T13:30:31.213Z,60.00
2019-03-29T13:33:00.859Z,59.40
2019-03-29T13:35:30.663Z,58.40
2019-03-29T13:38:00.301Z,58.20
2019-03-29T13:40:29.915Z,58.10
2019-03-29T13:42:59.553Z,58.60
2019-03-29T13:45:29.187Z,57.60
2019-03-29T13:47:58.817Z,57.90
2019-03-29T13:50:28.457Z,57.70
2019-03-29T13:52:58.106Z,57.20
2019-03-29T13:55:27.721Z,56.70
2019-03-29T13:57:57.374Z,55.60
2019-03-29T14:00:26.970Z,56.20
2019-03-29T14:02:56.730Z,55.80
2019-03-29T14:05:26.339Z,56.10
2019-03-29T14:07:55.911Z,56.20
2019-03-29T14:10:25.522Z,55.20
2019-03-29T14:12:55.169Z,55.40
2019-03-29T14:15:24.883Z,56.00
2019-03-29T14:17:54.518Z,55.70
2019-03-29T14:20:31.921Z,55.80
2019-03-29T14:23:02.406Z,55.10
2019-03-29T14:25:32.048Z,55.20
2019-03-29T14:28:01.661Z,54.60
2019-03-29T14:30:31.324Z,54.10
2019-03-29T14:33:01.007Z,54.10
2019-03-29T14:35:30.602Z,55.20
2019-03-29T14:38:00.282Z,54.80
2019-03-29T14:40:29.885Z,54.00
2019-03-29T14:42:59.509Z,53.70
2019-03-29T14:45:29.386Z,55.00
2019-03-29T14:47:58.993Z,55.20
2019-03-29T14:50:28.616Z,56.40
2019-03-29T14:52:58.308Z,55.50
2019-03-29T14:55:29.936Z,53.80
2019-03-29T14:57:59.589Z,54.80
2019-03-29T15:00:40.513Z,53.80
2019-03-29T15:03:10.298Z,53.80
2019-03-29T15:05:40.196Z,54.30
2019-03-29T15:08:09.894Z,54.00
2019-03-29T15:10:39.496Z,53.60
2019-03-29T15:13:09.123Z,53.90
2019-03-29T15:15:38.738Z,54.00
2019-03-29T15:18:08.423Z,52.30
2019-03-29T15:20:52.158Z,52.40
2019-03-29T15:23:09.456Z,53.10
2019-03-29T15:25:40.597Z,53.70
2019-03-29T15:28:10.565Z,53.40
2019-03-29T15:30:40.290Z,51.80
2019-03-29T15:33:09.918Z,51.80
2019-03-29T15:35:39.542Z,51.30
2019-03-29T15:38:09.198Z,50.80
2019-03-29T15:40:38.816Z,51.60
2019-03-29T15:43:08.484Z,51.80
2019-03-29T15:45:38.112Z,51.90
2019-03-29T15:48:07.804Z,53.80
2019-03-29T15:50:37.422Z,53.20
2019-03-29T15:53:07.084Z,53.60
2019-03-29T15:55:36.776Z,53.30
2019-03-29T15:58:06.446Z,53.40
2019-03-29T16:00:36.056Z,53.20
2019-03-29T16:03:05.734Z,54.50
2019-03-29T16:05:35.352Z,53.90
2019-03-29T16:08:05.008Z,53.40
2019-03-29T16:10:34.568Z,54.40
2019-03-29T16:13:04.212Z,54.50
2019-03-29T16:15:38.093Z,54.20
2019-03-29T16:18:08.313Z,53.60
2019-03-29T16:20:37.960Z,54.60
2019-03-29T16:23:07.608Z,53.60
2019-03-29T16:25:37.250Z,53.50
2019-03-29T16:28:07.346Z,53.50
2019-03-29T16:30:36.935Z,53.30
2019-03-29T16:33:06.560Z,54.10
2019-03-29T16:35:36.202Z,53.90
2019-03-29T16:38:05.890Z,54.00
2019-03-29T16:40:35.624Z,54.00
2019-03-29T16:43:05.247Z,53.90
2019-03-29T16:45:47.308Z,53.40
2019-03-29T16:48:06.940Z,53.20
2019-03-29T16:50:36.665Z,54.80
2019-03-29T16:53:06.424Z,54.90
2019-03-29T16:55:36.147Z,54.40
2019-03-29T16:58:05.813Z,54.00
2019-03-29T17:00:35.449Z,53.80
2019-03-29T17:03:05.288Z,53.50
2019-03-29T17:05:34.905Z,53.90
2019-03-29T17:08:05.530Z,54.60
2019-03-29T17:10:35.369Z,54.30
2019-03-29T17:13:05.017Z,54.20
2019-03-29T17:15:34.663Z,54.50
2019-03-29T17:18:04.254Z,54.20
2019-03-29T17:20:33.967Z,54.40
2019-03-29T17:23:03.697Z,54.90
2019-03-29T17:25:33.314Z,54.80
2019-03-29T17:28:02.919Z,54.50
2019-03-29T17:30:53.759Z,54.20
2019-03-29T17:33:23.381Z,53.70
2019-03-29T17:35:54.220Z,53.40
2019-03-29T17:38:23.927Z,52.80
2019-03-29T17:40:53.530Z,52.80
2019-03-29T17:43:23.277Z,53.00
2019-03-29T17:45:52.893Z,52.50
2019-03-29T17:48:22.515Z,53.20
2019-03-29T17:50:52.117Z,52.70
2019-03-29T17:53:21.735Z,52.70
2019-03-29T17:55:51.365Z,52.40
2019-03-29T17:58:20.922Z,51.90
2019-03-29T18:00:50.537Z,51.90
2019-03-29T18:03:20.191Z,52.00
2019-03-29T18:05:49.873Z,52.40
2019-03-29T18:08:19.495Z,52.50
2019-03-29T18:10:49.239Z,52.50
2019-03-29T18:13:18.900Z,52.40
2019-03-29T18:15:48.542Z,52.50
2019-03-29T18:18:18.160Z,52.40
2019-03-29T18:20:48.137Z,52.70
2019-03-29T18:23:17.862Z,52.60
2019-03-29T18:25:47.460Z,52.80
2019-03-29T18:28:20.056Z,52.80
2019-03-29T18:30:49.706Z,52.80
2019-03-29T18:33:19.802Z,52.90
2019-03-29T18:35:49.676Z,53.10
2019-03-29T18:38:19.389Z,53.00
2019-03-29T18:40:49.199Z,53.10
2019-03-29T18:43:19.012Z,53.10
2019-03-29T18:45:48.641Z,53.60
2019-03-29T18:48:18.318Z,53.60
2019-03-29T18:50:47.972Z,53.60
2019-03-29T18:53:17.586Z,53.60
2019-03-29T18:55:47.207Z,53.90
2019-03-29T18:58:17.369Z,54.00
2019-03-29T19:00:49.290Z,54.20
2019-03-29T19:03:19.037Z,54.40
2019-03-29T19:05:48.684Z,54.60
2019-03-29T19:08:18.520Z,54.60
2019-03-29T19:10:48.258Z,54.70
2019-03-29T19:13:18.035Z,54.90
2019-03-29T19:15:47.854Z,54.90
2019-03-29T19:18:17.563Z,55.00
2019-03-29T19:20:47.404Z,55.10
2019-03-29T19:23:17.155Z,55.30
2019-03-29T19:25:47.197Z,55.50
2019-03-29T19:28:17.011Z,55.80
2019-03-29T19:30:47.077Z,55.80
2019-03-29T19:33:16.727Z,55.90
2019-03-29T19:35:46.411Z,56.20
2019-03-29T19:38:16.260Z,56.20
2019-03-29T19:40:46.001Z,56.30
2019-03-29T19:43:15.688Z,56.40
2019-03-29T19:45:45.384Z,56.40
2019-03-29T19:48:15.487Z,56.60
2019-03-29T19:50:45.317Z,56.50
2019-03-29T19:53:15.427Z,56.70
2019-03-29T19:58:20.355Z,56.90
2019-03-29T20:00:50.048Z,56.50
2019-03-29T20:03:19.680Z,56.60
2019-03-29T20:05:49.307Z,56.70
2019-03-29T20:08:19.003Z,57.50
2019-03-29T20:10:48.650Z,57.10
2019-03-29T20:13:18.279Z,56.90
2019-03-29T20:15:47.892Z,56.80
2019-03-29T20:18:17.503Z,57.00
2019-03-29T20:20:47.201Z,57.30
2019-03-29T20:23:16.876Z,57.20
2019-03-29T20:25:46.554Z,57.50
2019-03-29T20:28:16.158Z,57.60
2019-03-29T20:30:45.794Z,57.90
2019-03-29T20:33:15.458Z,57.90
2019-03-29T20:35:45.103Z,57.80
2019-03-29T20:38:14.724Z,57.90
2019-03-29T20:40:44.362Z,57.90
2019-03-29T20:43:13.970Z,58.00
2019-03-29T20:45:43.636Z,58.20
2019-03-29T20:48:13.270Z,58.40
2019-03-29T20:50:42.938Z,58.10
2019-03-29T20:53:12.552Z,58.10
2019-03-29T20:55:42.188Z,58.20
2019-03-29T20:58:11.830Z,58.50
2019-03-29T21:00:41.482Z,58.10
2019-03-29T21:03:11.118Z,58.50
2019-03-29T21:05:40.772Z,59.40
2019-03-29T21:08:10.478Z,59.40
2019-03-29T21:10:54.507Z,59.60
2019-03-29T21:13:11.612Z,59.80
2019-03-29T21:15:41.208Z,60.10
2019-03-29T21:18:10.918Z,59.80
2019-03-29T21:20:40.538Z,59.90
2019-03-29T21:23:10.236Z,60.00
2019-03-29T21:25:39.920Z,60.20
2019-03-29T21:28:09.563Z,60.10
2019-03-29T21:30:39.196Z,59.90
2019-03-29T21:33:08.820Z,59.90
2019-03-29T21:35:38.404Z,60.00
2019-03-29T21:38:08.053Z,60.10
2019-03-29T21:40:37.709Z,60.10
2019-03-29T21:43:07.352Z,60.00
2019-03-29T21:45:36.955Z,60.20
2019-03-29T21:48:27.405Z,60.40
2019-03-29T21:50:37.961Z,60.60
2019-03-29T21:53:07.604Z,60.50
2019-03-29T21:55:37.253Z,60.60
2019-03-29T21:58:06.876Z,60.70
2019-03-29T22:00:36.504Z,60.70
2019-03-29T22:03:06.109Z,61.00
2019-03-29T22:05:35.743Z,61.10
2019-03-29T22:08:05.390Z,61.30
2019-03-29T22:10:35.110Z,61.30
2019-03-29T22:13:04.754Z,61.50
2019-03-29T22:15:34.394Z,61.50
2019-03-29T22:18:06.746Z,61.50
2019-03-29T22:20:35.384Z,61.30
2019-03-29T22:23:05.050Z,61.40
2019-03-29T22:25:34.685Z,61.40
2019-03-29T22:28:04.402Z,61.40
2019-03-29T22:30:34.088Z,61.60
2019-03-29T22:33:04.087Z,61.70
2019-03-29T22:35:33.846Z,61.70
2019-03-29T22:38:03.502Z,61.90
2019-03-29T22:40:33.125Z,62.20
2019-03-29T22:43:02.861Z,62.00
2019-03-29T22:45:32.482Z,62.20
2019-03-29T22:48:02.053Z,62.40
2019-03-29T22:50:31.658Z,62.40
2019-03-29T22:53:01.324Z,62.60
2019-03-29T22:55:30.923Z,62.60
2019-03-29T22:58:00.571Z,62.60
2019-03-29T23:00:39.207Z,62.60
2019-03-29T23:03:09.033Z,62.70
2019-03-29T23:05:38.644Z,62.50
2019-03-29T23:08:08.276Z,62.70
2019-03-29T23:10:37.878Z,63.10
2019-03-29T23:13:07.602Z,63.30
2019-03-29T23:15:37.203Z,63.40
2019-03-29T23:18:06.824Z,63.20
2019-03-29T23:20:36.455Z,63.30
2019-03-29T23:23:06.104Z,63.50
2019-03-29T23:25:35.992Z,63.30
2019-03-29T23:28:05.637Z,63.40
2019-03-29T23:30:35.266Z,63.60
2019-03-29T23:33:04.993Z,63.90
2019-03-29T23:35:34.683Z,64.00
2019-03-29T23:38:04.303Z,63.70
2019-03-29T23:40:34.047Z,63.70
2019-03-29T23:43:03.608Z,63.90
2019-03-29T23:45:33.296Z,64.00
2019-03-29T23:48:02.919Z,64.10
2019-03-29T23:50:32.531Z,64.40
2019-03-29T23:53:02.150Z,64.70
2019-03-29T23:55:31.820Z,64.80
2019-03-29T23:58:01.469Z,64.90
